Blue River Lodge, Nebraska
Current Conditions -  °F | °C
As of 4:54 AM on Friday 31 Oct 2014 (Local Time) from KLNK Reporting Station
Clear Clear  
Wind Chill: 19°   Ceiling: Unl
Heat Index: 30°   Visibility: 10mi
Dew Point: 21°   Wind: 16mph
Humidity: 69%   Direction: 360°N
Pressure: 30.49"   Gusts: NA
Location:  40.5918°N, 96.9749°W
Report Text: KLNK 310954Z AUTO 36014KT 10SM CLR M01/M06 A3049 RMK AO2 PK WND 01026/0906 SLP331 T10111061
Loading
Personal Weather Stations






























Interactive Weather Map
Tropical Storm Tracking
New forecast layout! Learn more

10-Day Weather Forecast

Advertisements
Track Severe Weather on mobile